Time;durP1;ratioP1;P1;durP2;ratioP2;P2;SDS_P1;SDS_P2;PMS_P1;PMS_P2;Temp;Humidity;BMP_temperature;BMP_pressure;BME280_temperature;BME280_humidity;BME280_pressure;Samples;Min_cycle;Max_cycle;Signal;HPM_P1;HPM_P2
2023/07/25 00:01:19;;;;;;;;;;;;;;;16.26;100.00;100608.06;5180734;28;19918;-69
2023/07/25 00:03:51;;;;;;;;;;;;;;;16.22;100.00;100612.06;5179125;28;19918;-68
2023/07/25 00:06:22;;;;;;;;;;;;;;;16.18;100.00;100609.94;5178008;28;19917;-68
2023/07/25 00:08:53;;;;;;;;;;;;;;;16.18;100.00;100612.59;5180447;28;19973;-68
2023/07/25 00:11:24;;;;;;;;;;;;;;;16.14;100.00;100604.16;5177135;28;19984;-68
2023/07/25 00:13:55;;;;;;;;;;;;;;;16.11;100.00;100603.69;5179586;28;20006;-67
2023/07/25 00:16:26;;;;;;;;;;;;;;;16.10;100.00;100604.66;5179257;28;20024;-68
2023/07/25 00:18:58;;;;;;;;;;;;;;;16.09;100.00;100609.13;5179419;28;19933;-68
2023/07/25 00:21:29;;;;;;;;;;;;;;;16.05;100.00;100608.66;5180541;28;19922;-67
2023/07/25 00:24:00;;;;;;;;;;;;;;;16.02;100.00;100606.38;5178135;28;20449;-66
2023/07/25 00:26:31;;;;;;;;;;;;;;;16.01;100.00;100606.53;5179561;28;20422;-68
2023/07/25 00:29:02;;;;;;;;;;;;;;;15.97;100.00;100607.84;5180113;28;19926;-66
2023/07/25 00:31:34;;;;;;;;;;;;;;;15.93;100.00;100606.56;5180290;28;19971;-68
2023/07/25 00:34:06;;;;;;;;;;;;;;;15.91;100.00;100606.75;5178565;28;19929;-65
2023/07/25 00:36:37;;;;;;;;;;;;;;;15.88;100.00;100598.34;5178872;28;19918;-67
2023/07/25 00:39:10;;;;;;;;;;;;;;;15.86;100.00;100600.31;5180067;28;19917;-67
2023/07/25 00:41:42;;;;;;;;;;;;;;;15.85;100.00;100606.59;5180366;28;20286;-67
2023/07/25 00:44:13;;;;;;;;;;;;;;;15.73;100.00;100591.09;5178211;28;19928;-68
2023/07/25 00:46:44;;;;;;;;;;;;;;;15.80;100.00;100607.09;5180970;28;19913;-66
2023/07/25 00:49:15;;;;;;;;;;;;;;;15.76;100.00;100598.69;5181480;28;19922;-68
2023/07/25 00:51:46;;;;;;;;;;;;;;;15.74;100.00;100610.41;5177728;28;19967;-68
2023/07/25 00:54:18;;;;;;;;;;;;;;;15.74;100.00;100597.22;5178849;28;19925;-68
2023/07/25 00:56:49;;;;;;;;;;;;;;;15.73;100.00;100608.78;5184037;28;19922;-68
2023/07/25 00:59:20;;;;;;;;;;;;;;;15.73;100.00;100601.66;5183383;28;19913;-68
2023/07/25 01:01:51;;;;;;;;;;;;;;;15.73;100.00;100599.03;5181214;28;20037;-68
2023/07/25 01:04:23;;;;;;;;;;;;;;;15.73;100.00;100598.22;5184110;28;19924;-69
2023/07/25 01:06:56;;;;;;;;;;;;;;;15.72;100.00;100597.38;5181796;28;19999;-68
2023/07/25 01:09:40;;;;;;;;;;;;;;;15.71;100.00;100595.72;5180692;28;19972;-69
2023/07/25 01:12:12;;;;;;;;;;;;;;;15.71;100.00;100592.25;5180774;28;19921;-69
2023/07/25 01:14:43;;;;;;;;;;;;;;;15.71;100.00;100586.97;5181374;28;19914;-67
2023/07/25 01:17:17;;;;;;;;;;;;;;;15.71;100.00;100594.91;5183036;28;19924;-68
2023/07/25 01:19:48;;;;;;;;;;;;;;;15.70;100.00;100595.91;5182751;28;19926;-68
2023/07/25 01:22:20;;;;;;;;;;;;;;;15.70;100.00;100594.06;5182741;28;20422;-68
2023/07/25 01:24:53;;;;;;;;;;;;;;;15.71;100.00;100594.91;5183333;28;19922;-68
2023/07/25 01:27:24;;;;;;;;;;;;;;;15.70;100.00;100601.19;5182262;28;20016;-67
2023/07/25 01:29:55;;;;;;;;;;;;;;;15.69;100.00;100589.81;5184015;28;19965;-67
2023/07/25 01:32:26;;;;;;;;;;;;;;;15.70;100.00;100593.25;5179409;28;20291;-68
2023/07/25 01:34:58;;;;;;;;;;;;;;;15.68;100.00;100587.31;5182087;28;19924;-68
2023/07/25 01:37:29;;;;;;;;;;;;;;;15.65;100.00;100582.34;5182655;28;19926;-68
2023/07/25 01:40:00;;;;;;;;;;;;;;;15.64;100.00;100585.97;5183719;28;20012;-68
2023/07/25 01:42:32;;;;;;;;;;;;;;;15.62;100.00;100580.88;5185146;28;20056;-68
2023/07/25 01:45:03;;;;;;;;;;;;;;;15.61;100.00;100579.22;5182445;28;20287;-68
2023/07/25 01:47:34;;;;;;;;;;;;;;;15.59;100.00;100578.56;5182444;28;19940;-68
2023/07/25 01:50:05;;;;;;;;;;;;;;;15.56;100.00;100569.16;5181995;28;19926;-68
2023/07/25 01:52:37;;;;;;;;;;;;;;;15.55;100.00;100571.97;5182588;28;20282;-68
2023/07/25 01:55:08;;;;;;;;;;;;;;;15.53;100.00;100582.72;5179778;28;19918;-68
2023/07/25 01:57:39;;;;;;;;;;;;;;;15.51;100.00;100581.22;5180404;28;20409;-68
2023/07/25 02:00:11;;;;;;;;;;;;;;;15.48;100.00;100571.81;5181272;28;19918;-68
2023/07/25 02:02:42;;;;;;;;;;;;;;;15.47;100.00;100574.63;5181016;28;19996;-68
2023/07/25 02:05:13;;;;;;;;;;;;;;;15.42;100.00;100566.38;5178659;28;19926;-68
2023/07/25 02:07:44;;;;;;;;;;;;;;;15.40;100.00;100561.28;5181855;28;19918;-68
2023/07/25 02:10:15;;;;;;;;;;;;;;;15.39;100.00;100561.47;5181343;28;19933;-68
2023/07/25 02:12:47;;;;;;;;;;;;;;;15.36;100.00;100557.34;5182682;28;19928;-68
2023/07/25 02:15:18;;;;;;;;;;;;;;;15.36;100.00;100567.06;5182663;28;19917;-68
2023/07/25 02:17:50;;;;;;;;;;;;;;;15.35;100.00;100565.44;5181514;28;19921;-68
2023/07/25 02:20:25;;;;;;;;;;;;;;;15.36;100.00;100564.44;5182621;28;19918;-68
2023/07/25 02:22:57;;;;;;;;;;;;;;;15.33;100.00;100565.59;5183126;28;19976;-68
2023/07/25 02:25:28;;;;;;;;;;;;;;;15.31;100.00;100571.03;5180555;28;19997;-68
2023/07/25 02:27:59;;;;;;;;;;;;;;;15.29;100.00;100557.19;5182330;28;19918;-68
2023/07/25 02:30:30;;;;;;;;;;;;;;;15.26;100.00;100554.88;5182158;28;19926;-68
2023/07/25 02:33:02;;;;;;;;;;;;;;;15.25;100.00;100553.22;5183616;28;19918;-68
2023/07/25 02:35:33;;;;;;;;;;;;;;;15.21;100.00;100557.19;5179978;28;19917;-68
2023/07/25 02:38:04;;;;;;;;;;;;;;;15.17;100.00;100557.69;5182442;28;19937;-68
2023/07/25 02:40:35;;;;;;;;;;;;;;;15.15;100.00;100559.66;5182655;28;19924;-67
2023/07/25 02:43:07;;;;;;;;;;;;;;;15.12;100.00;100558.22;5182283;28;20060;-67
2023/07/25 02:45:38;;;;;;;;;;;;;;;15.12;100.00;100566.13;5181042;28;19928;-67
2023/07/25 02:48:09;;;;;;;;;;;;;;;15.12;100.00;100563.47;5181586;28;20636;-67
2023/07/25 02:50:40;;;;;;;;;;;;;;;15.11;100.00;100561.81;5180437;28;19980;-67
2023/07/25 02:53:12;;;;;;;;;;;;;;;15.12;100.00;100563.47;5180652;28;19917;-67
2023/07/25 02:55:43;;;;;;;;;;;;;;;15.13;100.00;100565.13;5181940;28;19956;-67
2023/07/25 02:58:14;;;;;;;;;;;;;;;15.12;100.00;100563.47;5181307;28;20517;-68
2023/07/25 03:00:45;;;;;;;;;;;;;;;15.14;100.00;100564.13;5178222;28;20254;-68
2023/07/25 03:03:16;;;;;;;;;;;;;;;15.18;100.00;100565.44;5179392;28;19922;-68
2023/07/25 03:05:47;;;;;;;;;;;;;;;15.21;100.00;100561.66;5180556;28;19956;-68
2023/07/25 03:08:19;;;;;;;;;;;;;;;15.22;100.00;100553.56;5181394;28;20395;-68
2023/07/25 03:10:50;;;;;;;;;;;;;;;15.26;100.00;100562.78;5180973;28;19913;-68
2023/07/25 03:13:21;;;;;;;;;;;;;;;15.26;100.00;100564.59;5181990;28;19918;-68
2023/07/25 03:15:52;;;;;;;;;;;;;;;15.26;100.00;100565.41;5182149;28;20009;-68
2023/07/25 03:18:23;;;;;;;;;;;;;;;15.27;100.00;100556.53;5181157;28;19922;-68
2023/07/25 03:20:54;;;;;;;;;;;;;;;15.28;100.00;100563.44;5182486;28;19924;-70
2023/07/25 03:23:26;;;;;;;;;;;;;;;15.30;100.00;100564.13;5180683;28;20029;-70
2023/07/25 03:25:57;;;;;;;;;;;;;;;15.33;100.00;100555.84;5179119;28;19921;-70
2023/07/25 03:28:28;;;;;;;;;;;;;;;15.36;100.00;100554.69;5180936;28;20016;-70
2023/07/25 03:31:00;;;;;;;;;;;;;;;15.37;100.00;100550.25;5180652;28;19913;-70
2023/07/25 03:33:31;;;;;;;;;;;;;;;15.39;100.00;100554.38;5182417;28;20334;-69
2023/07/25 03:36:03;;;;;;;;;;;;;;;15.41;100.00;100548.91;5180861;28;19921;-69
2023/07/25 03:38:35;;;;;;;;;;;;;;;15.44;100.00;100559.13;5180984;28;19918;-70
2023/07/25 03:41:06;;;;;;;;;;;;;;;15.43;100.00;100542.47;5181463;28;19913;-70
2023/07/25 03:43:37;;;;;;;;;;;;;;;15.43;100.00;100545.13;5181617;28;19925;-69
2023/07/25 03:46:08;;;;;;;;;;;;;;;15.44;100.00;100541.47;5181787;28;20767;-69
2023/07/25 03:48:40;;;;;;;;;;;;;;;15.46;100.00;100546.59;5180356;28;20656;-69
2023/07/25 03:51:11;;;;;;;;;;;;;;;15.47;100.00;100548.25;5179514;28;19921;-68
2023/07/25 03:53:42;;;;;;;;;;;;;;;15.45;100.00;100544.94;5180605;28;20391;-69
2023/07/25 03:56:13;;;;;;;;;;;;;;;15.45;100.00;100548.38;5181660;28;20477;-68
2023/07/25 03:58:44;;;;;;;;;;;;;;;15.45;100.00;100550.22;5180309;28;19913;-69
2023/07/25 04:01:15;;;;;;;;;;;;;;;15.44;100.00;100549.38;5182033;28;19918;-69
2023/07/25 04:03:47;;;;;;;;;;;;;;;15.43;100.00;100552.22;5180220;28;19925;-69
2023/07/25 04:06:18;;;;;;;;;;;;;;;15.43;100.00;100552.22;5180767;28;20383;-69
2023/07/25 04:08:49;;;;;;;;;;;;;;;15.43;100.00;100562.78;5181962;28;19930;-68
2023/07/25 04:11:20;;;;;;;;;;;;;;;15.41;100.00;100556.81;5180134;28;19914;-68
2023/07/25 04:13:52;;;;;;;;;;;;;;;15.40;100.00;100558.63;5180915;28;20017;-69
2023/07/25 04:16:23;;;;;;;;;;;;;;;15.40;100.00;100560.47;5181323;28;19996;-68
2023/07/25 04:18:54;;;;;;;;;;;;;;;15.38;100.00;100560.66;5182046;28;19989;-68
2023/07/25 04:21:25;;;;;;;;;;;;;;;15.38;100.00;100557.16;5174713;28;19922;-69
2023/07/25 04:23:56;;;;;;;;;;;;;;;15.38;100.00;100551.88;5179772;28;19922;-69
2023/07/25 04:26:27;;;;;;;;;;;;;;;15.37;100.00;100551.06;5179682;28;19921;-70
2023/07/25 04:28:59;;;;;;;;;;;;;;;15.35;100.00;100558.34;5180963;28;19926;-70
2023/07/25 04:31:30;;;;;;;;;;;;;;;15.34;100.00;100559.31;5184319;28;20327;-70
2023/07/25 04:34:01;;;;;;;;;;;;;;;15.36;100.00;100559.16;5184560;28;20189;-70
2023/07/25 04:36:32;;;;;;;;;;;;;;;15.37;100.00;100551.06;5184533;28;19917;-69
2023/07/25 04:39:03;;;;;;;;;;;;;;;15.40;100.00;100547.25;5183985;28;19913;-70
2023/07/25 04:41:34;;;;;;;;;;;;;;;15.41;100.00;100565.56;5183821;28;19957;-69
2023/07/25 04:44:06;;;;;;;;;;;;;;;15.43;100.00;100563.59;5183998;28;19925;-70
2023/07/25 04:46:37;;;;;;;;;;;;;;;15.47;100.00;100566.72;5184495;28;20474;-69
2023/07/25 04:49:11;;;;;;;;;;;;;;;15.49;100.00;100568.22;5183423;28;19973;-69
2023/07/25 04:51:42;;;;;;;;;;;;;;;15.53;100.00;100553.69;5184890;28;19914;-70
2023/07/25 04:54:13;;;;;;;;;;;;;;;15.57;100.00;100551.53;5183321;28;19924;-70
2023/07/25 04:56:44;;;;;;;;;;;;;;;15.59;100.00;100552.16;5183345;28;19929;-69
2023/07/25 04:59:16;;;;;;;;;;;;;;;15.62;100.00;100551.00;5177365;28;20447;-69
2023/07/25 05:01:47;;;;;;;;;;;;;;;15.65;100.00;100548.88;5182875;28;19922;-70
2023/07/25 05:04:18;;;;;;;;;;;;;;;15.71;100.00;100542.06;5182245;28;19948;-69
2023/07/25 05:06:49;;;;;;;;;;;;;;;15.76;100.00;100555.63;5181192;28;19978;-69
2023/07/25 05:09:20;;;;;;;;;;;;;;;15.79;100.00;100561.34;5184640;28;19922;-69
2023/07/25 05:11:52;;;;;;;;;;;;;;;15.81;100.00;100558.56;5182631;28;20457;-69
2023/07/25 05:14:23;;;;;;;;;;;;;;;15.80;100.00;100563.03;5183099;28;19913;-69
2023/07/25 05:16:54;;;;;;;;;;;;;;;15.86;100.00;100568.59;5183331;28;19950;-70
2023/07/25 05:19:25;;;;;;;;;;;;;;;15.91;100.00;100564.47;5183496;28;20391;-69
2023/07/25 05:21:56;;;;;;;;;;;;;;;15.96;100.00;100563.94;5183406;28;19921;-70
2023/07/25 05:24:28;;;;;;;;;;;;;;;16.02;100.00;100564.09;5181748;28;19924;-69
2023/07/25 05:26:59;;;;;;;;;;;;;;;16.10;100.00;100562.38;5182843;28;19914;-70
2023/07/25 05:29:30;;;;;;;;;;;;;;;16.18;100.00;100571.09;5182837;28;19932;-70
2023/07/25 05:32:02;;;;;;;;;;;;;;;16.25;100.00;100566.78;5184474;28;19922;-70
2023/07/25 05:34:33;;;;;;;;;;;;;;;16.32;100.00;100568.72;5184704;28;19913;-69
2023/07/25 05:37:05;;;;;;;;;;;;;;;16.39;100.00;100569.66;5183503;28;19918;-70
2023/07/25 05:39:36;;;;;;;;;;;;;;;16.43;100.00;100576.25;5182993;28;19941;-70
2023/07/25 05:42:07;;;;;;;;;;;;;;;16.48;100.00;100572.09;5180591;28;20294;-69
2023/07/25 05:44:38;;;;;;;;;;;;;;;16.53;100.00;100566.28;5180575;28;19925;-69
2023/07/25 05:47:10;;;;;;;;;;;;;;;16.58;100.00;100576.31;5180384;28;19925;-70
2023/07/25 05:49:41;;;;;;;;;;;;;;;16.59;100.00;100583.25;5181731;28;20384;-70
2023/07/25 05:52:12;;;;;;;;;;;;;;;16.63;100.00;100585.38;5183151;28;20264;-70
2023/07/25 05:54:44;;;;;;;;;;;;;;;16.69;100.00;100584.66;5181953;28;19925;-70
2023/07/25 05:57:15;;;;;;;;;;;;;;;16.58;100.00;100563.91;5182269;28;19921;-69
2023/07/25 05:59:46;;;;;;;;;;;;;;;16.75;100.00;100584.00;5180057;28;19930;-69
2023/07/25 06:02:17;;;;;;;;;;;;;;;16.78;100.00;100583.66;5180795;28;19921;-69
2023/07/25 06:04:49;;;;;;;;;;;;;;;16.86;100.00;100589.84;5183315;28;19922;-70
2023/07/25 06:07:20;;;;;;;;;;;;;;;16.91;100.00;100587.53;5179450;28;20390;-70
2023/07/25 06:09:51;;;;;;;;;;;;;;;16.94;100.00;100588.00;5182242;28;19921;-69
2023/07/25 06:12:22;;;;;;;;;;;;;;;16.97;100.00;100576.19;5182511;28;20350;-69
2023/07/25 06:14:53;;;;;;;;;;;;;;;16.97;100.00;100579.69;5176078;28;19939;-69
2023/07/25 06:17:25;;;;;;;;;;;;;;;17.00;100.00;100579.31;5176821;28;19917;-69
2023/07/25 06:19:56;;;;;;;;;;;;;;;17.02;100.00;100579.16;5179948;28;19926;-70
2023/07/25 06:22:27;;;;;;;;;;;;;;;17.03;100.00;100581.63;5177156;28;19918;-70
2023/07/25 06:24:58;;;;;;;;;;;;;;;17.08;100.00;100588.19;5177194;28;20020;-69
2023/07/25 06:27:29;;;;;;;;;;;;;;;17.15;100.00;100586.47;5180638;28;19969;-70
2023/07/25 06:30:01;;;;;;;;;;;;;;;17.21;100.00;100591.88;5179955;28;19928;-70
2023/07/25 06:32:32;;;;;;;;;;;;;;;17.25;100.00;100593.16;5180603;28;20288;-69
2023/07/25 06:35:04;;;;;;;;;;;;;;;17.25;100.00;100593.16;5178040;28;19914;-69
2023/07/25 06:37:36;;;;;;;;;;;;;;;17.26;100.00;100589.50;5183442;28;19917;-70
2023/07/25 06:40:08;;;;;;;;;;;;;;;17.31;100.00;100594.25;5178756;28;19922;-70
2023/07/25 06:42:39;;;;;;;;;;;;;;;17.47;100.00;100591.47;5182095;28;19928;-69
2023/07/25 06:45:10;;;;;;;;;;;;;;;17.60;100.00;100601.44;5184239;28;20331;-69
2023/07/25 06:47:41;;;;;;;;;;;;;;;17.80;100.00;100596.44;5180348;28;19918;-69
2023/07/25 06:50:12;;;;;;;;;;;;;;;17.96;100.00;100601.56;5181970;28;20371;-69
2023/07/25 06:52:44;;;;;;;;;;;;;;;17.93;100.00;100591.31;5175241;28;20012;-70
2023/07/25 06:55:18;;;;;;;;;;;;;;;18.11;100.00;100587.47;5176607;28;19937;-70
2023/07/25 06:57:50;;;;;;;;;;;;;;;18.17;100.00;100592.81;5179407;28;19921;-70
2023/07/25 07:00:22;;;;;;;;;;;;;;;18.31;100.00;100590.34;5180048;28;19953;-70
2023/07/25 07:02:53;;;;;;;;;;;;;;;18.34;100.00;100589.97;5178318;28;20343;-70
2023/07/25 07:05:24;;;;;;;;;;;;;;;18.33;100.00;100597.09;5179720;28;19913;-70
2023/07/25 07:07:56;;;;;;;;;;;;;;;18.34;100.00;100595.28;5180398;28;19922;-70
2023/07/25 07:10:27;;;;;;;;;;;;;;;18.42;100.00;100593.31;5180514;28;19984;-69
2023/07/25 07:12:58;;;;;;;;;;;;;;;18.58;100.00;100605.53;5179591;28;20326;-70
2023/07/25 07:15:29;;;;;;;;;;;;;;;18.55;100.00;100605.09;5178569;28;19924;-70
2023/07/25 07:18:00;;;;;;;;;;;;;;;18.59;100.00;100609.81;5190212;23;19937;-73
2023/07/25 07:20:31;;;;;;;;;;;;;;;18.64;100.00;100607.44;5210753;28;19925;-74
2023/07/25 07:23:03;;;;;;;;;;;;;;;18.68;100.00;100607.88;5203049;28;19936;-76
2023/07/25 07:25:36;;;;;;;;;;;;;;;18.69;100.00;100613.00;5203296;28;19968;-74
2023/07/25 07:28:08;;;;;;;;;;;;;;;18.68;100.00;100610.53;5200006;28;19917;-72
2023/07/25 07:30:39;;;;;;;;;;;;;;;18.72;100.00;100606.53;5211382;22;19972;-76
2023/07/25 07:33:10;;;;;;;;;;;;;;;18.75;100.00;100614.09;5179812;28;19918;-76
2023/07/25 07:35:41;;;;;;;;;;;;;;;18.74;100.00;100615.09;5184633;28;20398;-76
2023/07/25 07:38:12;;;;;;;;;;;;;;;18.74;100.00;100611.63;5184694;28;20251;-76
2023/07/25 07:40:44;;;;;;;;;;;;;;;18.73;100.00;100618.78;5177936;28;20017;-77
2023/07/25 07:43:15;;;;;;;;;;;;;;;18.77;100.00;100621.88;5173066;28;19965;-76
2023/07/25 07:45:48;;;;;;;;;;;;;;;18.73;100.00;100612.66;5172708;28;19914;-76
2023/07/25 07:48:19;;;;;;;;;;;;;;;18.70;100.00;100627.09;5172132;28;19918;-76
2023/07/25 07:50:50;;;;;;;;;;;;;;;18.73;100.00;100636.53;5169324;28;19922;-77
2023/07/25 07:53:21;;;;;;;;;;;;;;;18.73;100.00;100631.22;5169951;28;19996;-76
2023/07/25 07:55:53;;;;;;;;;;;;;;;18.70;100.00;100635.91;5171266;28;19924;-77
2023/07/25 07:58:24;;;;;;;;;;;;;;;18.73;100.00;100641.84;5170972;28;19918;-76
2023/07/25 08:00:55;;;;;;;;;;;;;;;18.71;100.00;100640.22;5170757;28;19925;-77
2023/07/25 08:03:27;;;;;;;;;;;;;;;18.75;100.00;100639.81;5168815;28;19949;-76
2023/07/25 08:05:58;;;;;;;;;;;;;;;18.76;100.00;100639.66;5171509;28;19977;-77
2023/07/25 08:08:29;;;;;;;;;;;;;;;18.80;100.00;100648.88;5173753;28;19918;-76
2023/07/25 08:11:00;;;;;;;;;;;;;;;18.88;100.00;100647.94;5171462;28;19973;-79
2023/07/25 08:13:31;;;;;;;;;;;;;;;19.00;100.00;100650.88;5166986;28;19918;-79
2023/07/25 08:16:03;;;;;;;;;;;;;;;19.06;100.00;100650.16;5168602;28;19953;-77
2023/07/25 08:18:34;;;;;;;;;;;;;;;19.11;100.00;100645.06;5171179;28;20053;-75
2023/07/25 08:21:05;;;;;;;;;;;;;;;19.22;100.00;100643.75;5170626;28;19922;-76
2023/07/25 08:23:36;;;;;;;;;;;;;;;19.31;100.00;100648.72;5171795;28;19925;-79
2023/07/25 08:26:08;;;;;;;;;;;;;;;19.46;100.00;100653.94;5168645;28;19941;-77
2023/07/25 08:28:39;;;;;;;;;;;;;;;19.56;100.00;100649.13;5170973;28;19984;-78
2023/07/25 08:31:11;;;;;;;;;;;;;;;19.61;100.00;100641.38;5166137;28;20016;-78
2023/07/25 08:33:42;;;;;;;;;;;;;;;19.71;100.00;100649.03;5170111;28;19922;-78
2023/07/25 08:36:14;;;;;;;;;;;;;;;19.80;100.00;100652.34;5171640;28;19918;-80
2023/07/25 08:38:45;;;;;;;;;;;;;;;19.95;100.00;100658.38;5173682;28;19972;-77
2023/07/25 08:41:17;;;;;;;;;;;;;;;20.10;100.00;100663.56;5172628;28;20005;-80
2023/07/25 08:43:49;;;;;;;;;;;;;;;20.23;100.00;100660.16;5170843;28;19922;-77
2023/07/25 08:46:21;;;;;;;;;;;;;;;20.36;100.00;100662.88;5172291;28;20032;-75
2023/07/25 08:48:55;;;;;;;;;;;;;;;20.46;100.00;100665.19;5171723;28;20405;-76
2023/07/25 08:51:26;;;;;;;;;;;;;;;20.65;100.00;100665.28;5172480;28;19922;-77
2023/07/25 08:54:11;;;;;;;;;;;;;;;20.85;100.00;100669.81;5173117;28;19947;-76
2023/07/25 08:56:42;;;;;;;;;;;;;;;20.94;100.00;100675.75;5172470;28;19918;-77
2023/07/25 08:59:13;;;;;;;;;;;;;;;20.92;100.00;100669.84;5171126;28;20395;-83
2023/07/25 09:01:45;;;;;;;;;;;;;;;20.85;100.00;100677.81;5172994;28;19925;-80
2023/07/25 09:04:18;;;;;;;;;;;;;;;20.78;100.00;100674.31;5173979;28;19993;-81
2023/07/25 09:06:49;;;;;;;;;;;;;;;20.93;100.00;100674.13;5174271;28;19914;-77
2023/07/25 09:09:21;;;;;;;;;;;;;;;21.09;100.00;100674.56;5171709;28;19988;-80
2023/07/25 09:11:53;;;;;;;;;;;;;;;21.24;100.00;100668.22;5171734;28;20369;-80
2023/07/25 09:14:25;;;;;;;;;;;;;;;21.32;100.00;100673.34;5172925;28;19925;-79
2023/07/25 09:16:56;;;;;;;;;;;;;;;21.50;100.00;100668.25;5170945;28;19913;-77
2023/07/25 09:19:29;;;;;;;;;;;;;;;21.66;100.00;100676.84;5172077;28;19914;-78
2023/07/25 09:22:00;;;;;;;;;;;;;;;21.62;100.00;100679.91;5175712;28;19926;-78
2023/07/25 09:24:38;;;;;;;;;;;;;;;21.53;100.00;100677.69;5167641;28;19924;-81
2023/07/25 09:27:18;;;;;;;;;;;;;;;21.43;100.00;100683.41;5171311;28;20311;-78
2023/07/25 09:29:50;;;;;;;;;;;;;;;21.26;100.00;100677.66;5173295;28;19972;-80
2023/07/25 09:32:24;;;;;;;;;;;;;;;21.20;100.00;100677.66;5170344;28;19925;-78
2023/07/25 09:34:56;;;;;;;;;;;;;;;21.06;100.00;100671.47;5170164;28;19969;-77
2023/07/25 09:37:30;;;;;;;;;;;;;;;21.04;100.00;100681.53;5171760;28;20387;-77
2023/07/25 09:40:01;;;;;;;;;;;;;;;20.98;100.00;100682.31;5168820;28;20343;-77
2023/07/25 09:42:32;;;;;;;;;;;;;;;20.93;100.00;100687.44;5169847;28;19984;-79
2023/07/25 09:45:07;;;;;;;;;;;;;;;20.85;100.00;100691.94;5173005;28;20363;-79
2023/07/25 09:47:38;;;;;;;;;;;;;;;20.80;100.00;100694.38;5170688;28;19917;-82
2023/07/25 09:50:09;;;;;;;;;;;;;;;20.88;100.00;100696.88;5167081;28;19925;-77
2023/07/25 09:52:42;;;;;;;;;;;;;;;21.06;100.00;100690.97;5170606;28;19924;-79
2023/07/25 09:55:13;;;;;;;;;;;;;;;21.30;100.00;100683.41;5170366;28;19918;-80
2023/07/25 09:57:44;;;;;;;;;;;;;;;21.63;100.00;100683.44;5170982;28;19917;-80
2023/07/25 10:00:16;;;;;;;;;;;;;;;21.96;100.00;100682.53;5169559;28;19925;-80
2023/07/25 10:02:48;;;;;;;;;;;;;;;22.13;100.00;100681.06;5169276;28;19933;-77
2023/07/25 10:05:19;;;;;;;;;;;;;;;22.19;100.00;100684.75;5170500;28;19925;-80
2023/07/25 10:07:51;;;;;;;;;;;;;;;22.05;100.00;100692.78;5169918;28;19918;-78
2023/07/25 10:10:22;;;;;;;;;;;;;;;22.06;100.00;100688.28;5168607;28;19928;-82
2023/07/25 10:12:53;;;;;;;;;;;;;;;21.99;100.00;100682.13;5170681;28;19925;-79
2023/07/25 10:15:25;;;;;;;;;;;;;;;22.10;100.00;100684.16;5168512;28;19918;-78
2023/07/25 10:18:03;;;;;;;;;;;;;;;22.10;100.00;100682.28;5168735;28;19917;-78
2023/07/25 10:20:34;;;;;;;;;;;;;;;22.14;100.00;100685.41;5170168;28;20004;-80
2023/07/25 10:23:07;;;;;;;;;;;;;;;22.24;100.00;100677.78;5170676;28;20966;-81
2023/07/25 10:25:38;;;;;;;;;;;;;;;22.36;100.00;100683.28;5170341;28;20000;-78
2023/07/25 10:28:10;;;;;;;;;;;;;;;22.58;100.00;100678.47;5170294;28;19966;-77
2023/07/25 10:30:43;;;;;;;;;;;;;;;22.85;100.00;100673.78;5170580;28;19933;-77
2023/07/25 10:33:16;;;;;;;;;;;;;;;22.98;100.00;100671.03;5167574;28;19917;-77
2023/07/25 10:35:52;;;;;;;;;;;;;;;23.20;100.00;100673.38;5169735;28;19922;-79
2023/07/25 10:38:34;;;;;;;;;;;;;;;23.37;100.00;100682.47;5170183;28;19918;-80
2023/07/25 10:41:08;;;;;;;;;;;;;;;23.34;100.00;100688.28;5167892;28;19921;-78
2023/07/25 10:43:46;;;;;;;;;;;;;;;23.09;100.00;100682.09;5168040;28;19922;-78
2023/07/25 10:46:21;;;;;;;;;;;;;;;22.84;100.00;100685.47;5169622;28;19918;-77
2023/07/25 10:48:53;;;;;;;;;;;;;;;22.67;100.00;100689.69;5169574;28;19928;-77
2023/07/25 10:51:44;;;;;;;;;;;;;;;22.46;100.00;100694.31;5167470;28;19941;-80
2023/07/25 10:54:18;;;;;;;;;;;;;;;22.31;100.00;100691.06;5165600;28;20438;-78
2023/07/25 10:57:08;;;;;;;;;;;;;;;22.44;100.00;100685.69;5168301;28;19918;-79
2023/07/25 11:00:01;;;;;;;;;;;;;;;22.79;100.00;100685.31;5170319;28;19921;-82
2023/07/25 11:02:39;;;;;;;;;;;;;;;23.15;100.00;100684.72;5170627;28;20213;-76
2023/07/25 11:05:12;;;;;;;;;;;;;;;23.50;100.00;100678.88;5171817;28;19913;-78
2023/07/25 11:07:44;;;;;;;;;;;;;;;23.62;100.00;100677.13;5170779;28;20339;-79
2023/07/25 11:10:28;;;;;;;;;;;;;;;23.67;100.00;100679.16;5167768;28;19930;-78
2023/07/25 11:13:00;;;;;;;;;;;;;;;23.77;100.00;100671.44;5170207;28;20190;-78
2023/07/25 11:15:31;;;;;;;;;;;;;;;23.78;100.00;100675.75;5172060;28;20398;-78
2023/07/25 11:18:06;;;;;;;;;;;;;;;23.63;100.00;100686.75;5170699;28;19922;-77
2023/07/25 11:20:37;;;;;;;;;;;;;;;23.46;100.00;100693.72;5169645;28;19933;-79
2023/07/25 11:23:09;;;;;;;;;;;;;;;23.35;100.00;100681.88;5170950;28;19917;-77
2023/07/25 11:25:40;;;;;;;;;;;;;;;23.39;95.46;100687.59;5171445;28;19918;-78
2023/07/25 11:28:13;;;;;;;;;;;;;;;23.46;90.99;100688.38;5166443;28;19918;-78
2023/07/25 11:30:45;;;;;;;;;;;;;;;23.51;92.02;100685.84;5169219;28;19941;-83
2023/07/25 11:33:16;;;;;;;;;;;;;;;23.49;83.95;100691.44;5171487;28;20012;-78
2023/07/25 11:35:54;;;;;;;;;;;;;;;23.39;84.84;100688.44;5172093;28;19918;-79
2023/07/25 11:38:25;;;;;;;;;;;;;;;23.48;81.91;100689.78;5170777;28;20020;-78
2023/07/25 11:40:56;;;;;;;;;;;;;;;23.52;80.90;100691.00;5171087;28;20410;-78
2023/07/25 11:43:29;;;;;;;;;;;;;;;23.60;76.92;100689.06;5170662;28;19925;-76
2023/07/25 11:46:00;;;;;;;;;;;;;;;23.78;77.85;100686.44;5170680;28;20386;-78
2023/07/25 11:48:31;;;;;;;;;;;;;;;23.87;68.96;100690.50;5170032;28;19917;-79
2023/07/25 11:51:02;;;;;;;;;;;;;;;23.80;61.14;100703.13;5170757;28;19933;-77
2023/07/25 11:53:34;;;;;;;;;;;;;;;23.72;60.37;100695.38;5169486;28;19914;-79
2023/07/25 11:56:05;;;;;;;;;;;;;;;23.63;62.39;100697.47;5171069;28;20154;-80
2023/07/25 11:58:36;;;;;;;;;;;;;;;23.77;61.82;100692.84;5170656;28;19910;-79
2023/07/25 12:01:08;;;;;;;;;;;;;;;23.84;59.37;100684.78;5168118;28;20430;-79
2023/07/25 12:03:45;;;;;;;;;;;;;;;23.91;56.07;100690.88;5171378;28;19914;-80
2023/07/25 12:06:25;;;;;;;;;;;;;;;24.03;58.82;100675.72;5171734;28;19949;-78
2023/07/25 12:08:56;;;;;;;;;;;;;;;23.94;59.24;100688.56;5166083;28;20359;-79
2023/07/25 12:11:28;;;;;;;;;;;;;;;23.72;55.61;100696.19;5171234;28;20012;-78
2023/07/25 12:13:59;;;;;;;;;;;;;;;23.51;56.93;100697.38;5170402;28;19914;-83
2023/07/25 12:16:35;;;;;;;;;;;;;;;23.35;60.18;100705.13;5170578;28;19948;-81
2023/07/25 12:19:10;;;;;;;;;;;;;;;23.34;57.49;100701.63;5168790;28;20009;-77
2023/07/25 12:21:45;;;;;;;;;;;;;;;23.48;61.06;100696.97;5170757;28;19914;-77
2023/07/25 12:24:16;;;;;;;;;;;;;;;23.71;53.95;100701.75;5171385;28;19918;-77
2023/07/25 12:26:54;;;;;;;;;;;;;;;23.88;54.23;100697.47;5172003;28;19922;-78
2023/07/25 12:29:25;;;;;;;;;;;;;;;24.11;51.60;100698.69;5170579;28;20304;-78
2023/07/25 12:31:56;;;;;;;;;;;;;;;24.27;52.64;100703.44;5166418;28;19937;-76
2023/07/25 12:34:27;;;;;;;;;;;;;;;24.40;51.02;100697.97;5170866;28;20291;-81
2023/07/25 12:37:00;;;;;;;;;;;;;;;24.44;51.46;100691.09;5170906;28;19951;-78
2023/07/25 12:39:32;;;;;;;;;;;;;;;24.28;48.10;100702.38;5169051;28;19918;-82
2023/07/25 12:42:03;;;;;;;;;;;;;;;24.02;48.28;100719.56;5169491;28;20616;-77
2023/07/25 12:44:34;;;;;;;;;;;;;;;23.89;46.82;100712.47;5170019;28;19914;-81
2023/07/25 12:47:05;;;;;;;;;;;;;;;23.95;45.23;100711.59;5169204;28;20399;-78
2023/07/25 12:49:37;;;;;;;;;;;;;;;24.12;43.07;100713.69;5169644;28;19918;-78
2023/07/25 12:52:08;;;;;;;;;;;;;;;24.32;44.47;100708.94;5170369;28;20094;-79